createdAt,value
2023-02-08T00:00:40.197Z,52.91
2023-02-08T00:03:07.263Z,52.74
2023-02-08T00:05:33.936Z,52.80
2023-02-08T00:08:00.667Z,52.63
2023-02-08T00:10:27.488Z,53.03
2023-02-08T00:12:54.476Z,52.53
2023-02-08T00:15:21.373Z,52.82
2023-02-08T00:17:48.070Z,52.88
2023-02-08T00:20:15.524Z,52.77
2023-02-08T00:22:42.174Z,52.57
2023-02-08T00:25:09.273Z,52.46
2023-02-08T00:27:36.178Z,52.40
2023-02-08T00:30:03.411Z,52.62
2023-02-08T00:32:30.040Z,52.39
2023-02-08T00:34:56.543Z,52.50
2023-02-08T00:37:23.083Z,52.04
2023-02-08T00:39:49.780Z,51.72
2023-02-08T00:42:16.327Z,51.89
2023-02-08T00:44:42.921Z,52.21
2023-02-08T00:47:09.661Z,51.88
2023-02-08T00:49:36.436Z,51.91
2023-02-08T00:52:03.023Z,52.13
2023-02-08T00:54:29.623Z,51.79
2023-02-08T00:56:56.120Z,52.12
2023-02-08T00:59:22.828Z,51.69
2023-02-08T01:01:49.375Z,52.36
2023-02-08T01:04:15.937Z,52.37
2023-02-08T01:06:42.526Z,52.35
2023-02-08T01:09:09.093Z,52.31
2023-02-08T01:11:35.692Z,52.20
2023-02-08T01:14:02.259Z,52.15
2023-02-08T01:16:32.015Z,54.02
2023-02-08T01:19:00.148Z,52.53
2023-02-08T01:21:29.378Z,52.53
2023-02-08T01:23:56.272Z,52.72
2023-02-08T01:26:24.249Z,53.08
2023-02-08T01:28:51.349Z,52.87
2023-02-08T01:31:29.068Z,52.91
2023-02-08T01:33:57.660Z,54.25
2023-02-08T01:36:25.400Z,53.26
2023-02-08T01:38:52.149Z,53.41
2023-02-08T01:41:22.139Z,52.62
2023-02-08T01:44:11.618Z,52.83
2023-02-08T01:46:43.497Z,52.52
2023-02-08T01:49:18.018Z,52.21
2023-02-08T01:51:47.623Z,52.57
2023-02-08T01:54:14.861Z,52.47
2023-02-08T01:56:45.609Z,52.31
2023-02-08T01:59:26.570Z,52.25
2023-02-08T02:01:54.602Z,52.79
2023-02-08T02:04:21.651Z,52.77
2023-02-08T02:06:52.932Z,52.64
2023-02-08T02:09:31.913Z,52.33
2023-02-08T02:11:59.096Z,52.34
2023-02-08T02:14:26.201Z,52.42
2023-02-08T02:16:52.690Z,52.10
2023-02-08T02:19:31.300Z,52.19
2023-02-08T02:22:06.232Z,52.38
2023-02-08T02:24:42.658Z,52.78
2023-02-08T02:27:28.041Z,53.05
2023-02-08T02:30:17.396Z,53.24
2023-02-08T02:32:51.352Z,53.50
2023-02-08T02:35:33.087Z,53.28
2023-02-08T02:37:59.574Z,53.21
2023-02-08T02:40:30.663Z,53.54
2023-02-08T02:43:32.708Z,53.66
2023-02-08T02:46:37.287Z,53.30
2023-02-08T02:49:15.370Z,53.36
2023-02-08T02:51:47.832Z,52.83
2023-02-08T02:54:16.318Z,53.31
2023-02-08T02:56:46.165Z,53.29
2023-02-08T02:59:13.828Z,53.04
2023-02-08T03:01:43.161Z,52.50
2023-02-08T03:04:36.639Z,52.65
2023-02-08T03:07:18.564Z,52.64
2023-02-08T03:09:57.274Z,52.93
2023-02-08T03:12:35.283Z,52.73
2023-02-08T03:15:31.173Z,52.41
2023-02-08T03:18:08.002Z,52.39
2023-02-08T03:20:39.020Z,52.01
2023-02-08T03:23:15.569Z,52.00
2023-02-08T03:25:42.092Z,51.49
2023-02-08T03:28:15.906Z,51.67
2023-02-08T03:30:52.690Z,51.66
2023-02-08T03:33:31.636Z,51.97
2023-02-08T03:36:19.631Z,51.43
2023-02-08T03:38:47.713Z,51.67
2023-02-08T03:41:19.014Z,51.73
2023-02-08T03:43:49.632Z,51.52
2023-02-08T03:46:26.010Z,51.50
2023-02-08T03:48:58.126Z,50.88
2023-02-08T03:51:26.425Z,51.35
2023-02-08T03:53:53.901Z,50.86
2023-02-08T03:56:35.934Z,51.30
2023-02-08T03:59:07.342Z,51.07
2023-02-08T04:01:41.348Z,51.10
2023-02-08T04:04:08.150Z,50.96
2023-02-08T04:06:34.759Z,50.77
2023-02-08T04:09:01.184Z,50.95
2023-02-08T04:11:27.730Z,50.79
2023-02-08T04:13:54.249Z,51.05
2023-02-08T04:16:21.035Z,50.77
2023-02-08T04:18:47.501Z,50.52
2023-02-08T04:21:14.176Z,50.65
2023-02-08T04:23:40.661Z,50.71
2023-02-08T04:26:08.735Z,50.92
2023-02-08T04:28:35.245Z,50.20
2023-02-08T04:31:01.825Z,50.17
2023-02-08T04:33:29.211Z,50.39
2023-02-08T04:35:55.772Z,50.84
2023-02-08T04:38:22.295Z,50.82
2023-02-08T04:40:48.841Z,50.72
2023-02-08T04:43:15.403Z,50.62
2023-02-08T04:45:41.854Z,50.74
2023-02-08T04:48:08.578Z,50.77
2023-02-08T04:50:35.555Z,51.36
2023-02-08T04:53:02.177Z,50.54
2023-02-08T04:55:28.655Z,50.83
2023-02-08T04:57:55.185Z,51.14
2023-02-08T05:00:21.867Z,50.82
2023-02-08T05:02:53.012Z,51.03
2023-02-08T05:05:19.550Z,51.15
2023-02-08T05:07:46.122Z,50.48
2023-02-08T05:10:12.639Z,50.82
2023-02-08T05:12:39.113Z,50.89
2023-02-08T05:15:05.898Z,51.24
2023-02-08T05:17:32.351Z,50.52
2023-02-08T05:19:58.875Z,51.17
2023-02-08T05:22:25.408Z,50.64
2023-02-08T05:24:51.965Z,50.74
2023-02-08T05:27:18.475Z,51.00
2023-02-08T05:29:44.962Z,50.90
2023-02-08T05:32:11.641Z,51.46
2023-02-08T05:34:38.497Z,51.10
2023-02-08T05:37:05.107Z,52.09
2023-02-08T05:39:31.528Z,51.77
2023-02-08T05:41:58.667Z,51.32
2023-02-08T05:44:25.230Z,51.17
2023-02-08T05:46:51.845Z,51.02
2023-02-08T05:49:18.570Z,51.38
2023-02-08T05:51:45.337Z,51.26
2023-02-08T05:54:11.939Z,51.33
2023-02-08T05:56:38.640Z,51.99
2023-02-08T05:59:05.222Z,51.35
2023-02-08T06:01:31.768Z,52.67
2023-02-08T06:03:59.707Z,52.58
2023-02-08T06:06:26.821Z,52.16
2023-02-08T06:08:53.454Z,52.23
2023-02-08T06:11:20.213Z,51.80
2023-02-08T06:13:47.260Z,51.91
2023-02-08T06:16:14.800Z,51.28
2023-02-08T06:18:41.307Z,52.20
2023-02-08T06:21:07.890Z,51.89
2023-02-08T06:23:34.355Z,51.31
2023-02-08T06:26:00.867Z,51.57
2023-02-08T06:28:27.791Z,51.38
2023-02-08T06:30:54.441Z,51.72
2023-02-08T06:33:20.995Z,51.35
2023-02-08T06:35:51.329Z,50.79
2023-02-08T06:38:18.197Z,50.94
2023-02-08T06:40:47.372Z,52.12
2023-02-08T06:43:14.426Z,52.28
2023-02-08T06:45:42.796Z,51.98
2023-02-08T06:48:09.314Z,51.51
2023-02-08T06:50:37.849Z,51.43
2023-02-08T06:53:04.948Z,51.13
2023-02-08T06:55:31.457Z,51.43
2023-02-08T06:57:57.943Z,50.82
2023-02-08T07:00:24.763Z,51.13
2023-02-08T07:02:52.450Z,51.39
2023-02-08T07:05:19.182Z,51.15
2023-02-08T07:07:45.863Z,50.97
2023-02-08T07:10:12.369Z,51.69
2023-02-08T07:12:38.983Z,52.34
2023-02-08T07:15:05.736Z,52.42
2023-02-08T07:17:32.300Z,52.18
2023-02-08T07:19:58.770Z,52.76
2023-02-08T07:22:25.270Z,52.20
2023-02-08T07:24:51.913Z,51.29
2023-02-08T07:27:18.537Z,52.10
2023-02-08T07:29:45.004Z,51.69
2023-02-08T07:32:11.632Z,51.85
2023-02-08T07:34:43.406Z,51.85
2023-02-08T07:37:09.970Z,51.48
2023-02-08T07:39:36.549Z,51.33
2023-02-08T07:42:03.312Z,50.78
2023-02-08T07:44:29.780Z,51.31
2023-02-08T07:46:56.325Z,51.30
2023-02-08T07:49:22.869Z,50.38
2023-02-08T07:51:49.738Z,50.39
2023-02-08T07:54:16.277Z,50.11
2023-02-08T07:56:42.752Z,50.15
2023-02-08T07:59:09.305Z,50.58
2023-02-08T08:01:35.892Z,50.46
2023-02-08T08:04:02.827Z,50.57
2023-02-08T08:06:29.371Z,50.17
2023-02-08T08:08:55.927Z,49.83
2023-02-08T08:11:22.700Z,49.34
2023-02-08T08:13:50.073Z,49.38
2023-02-08T08:16:16.791Z,48.61
2023-02-08T08:18:43.319Z,48.46
2023-02-08T08:21:10.364Z,48.21
2023-02-08T08:23:36.966Z,47.95
2023-02-08T08:26:15.088Z,47.79
2023-02-08T08:28:42.640Z,46.61
2023-02-08T08:31:14.178Z,46.09
2023-02-08T08:33:40.865Z,45.03
2023-02-08T08:36:08.397Z,44.79
2023-02-08T08:38:35.290Z,44.36
2023-02-08T08:41:01.962Z,43.68
2023-02-08T08:43:28.440Z,43.48
2023-02-08T08:45:55.093Z,42.63
2023-02-08T08:48:21.777Z,42.25
2023-02-08T08:50:48.338Z,42.13
2023-02-08T08:53:15.334Z,42.16
2023-02-08T08:55:41.793Z,42.12
2023-02-08T08:58:08.256Z,41.77
2023-02-08T09:00:34.733Z,41.21
2023-02-08T09:03:01.281Z,40.50
2023-02-08T09:05:28.043Z,39.69
2023-02-08T09:07:54.646Z,38.60
2023-02-08T09:10:21.094Z,38.03
2023-02-08T09:12:47.786Z,36.64
2023-02-08T09:15:14.338Z,35.45
2023-02-08T09:17:40.955Z,34.90
2023-02-08T09:20:07.768Z,34.54
2023-02-08T09:22:34.699Z,33.63
2023-02-08T09:25:02.086Z,33.30
2023-02-08T09:27:29.361Z,32.57
2023-02-08T09:29:55.888Z,33.32
2023-02-08T09:32:23.016Z,32.25
2023-02-08T09:34:49.894Z,31.85
2023-02-08T09:37:17.989Z,31.16
2023-02-08T09:39:47.348Z,30.27
2023-02-08T09:42:34.901Z,29.07
2023-02-08T09:45:23.550Z,28.62
2023-02-08T09:48:17.137Z,27.05
2023-02-08T09:50:54.514Z,21.79
2023-02-08T09:53:27.836Z,17.15
2023-02-08T09:56:01.736Z,12.72
2023-02-08T09:58:38.131Z,10.55
2023-02-08T10:01:07.557Z,8.71
2023-02-08T10:03:44.156Z,7.39
2023-02-08T10:06:18.360Z,6.27
2023-02-08T10:08:46.437Z,5.56
2023-02-08T10:11:26.253Z,4.80
2023-02-08T10:14:13.200Z,5.01
2023-02-08T10:17:04.271Z,4.70
2023-02-08T10:20:06.085Z,4.01
2023-02-08T10:22:51.111Z,3.29
2023-02-08T10:25:41.880Z,3.45
2023-02-08T10:28:20.634Z,2.99
2023-02-08T10:31:21.566Z,3.44
2023-02-08T10:33:55.397Z,3.33
2023-02-08T10:36:26.060Z,2.88
2023-02-08T10:38:53.386Z,2.63
2023-02-08T10:41:23.583Z,2.64
2023-02-08T10:44:01.580Z,2.12
2023-02-08T10:46:34.752Z,2.03
2023-02-08T10:49:16.544Z,1.93
2023-02-08T10:51:43.185Z,1.89
2023-02-08T10:54:13.477Z,1.85
2023-02-08T10:56:47.743Z,1.78
2023-02-08T10:59:24.254Z,2.08
2023-02-08T11:01:50.950Z,2.08
2023-02-08T11:04:18.720Z,2.20
2023-02-08T11:06:46.518Z,2.19
2023-02-08T11:09:33.334Z,2.13
2023-02-08T11:12:01.301Z,2.12
2023-02-08T11:14:51.115Z,1.85
2023-02-08T11:17:28.461Z,1.84
2023-02-08T11:19:55.548Z,1.89
2023-02-08T11:22:25.137Z,1.53
2023-02-08T11:25:03.895Z,2.33
2023-02-08T11:27:36.200Z,1.97
2023-02-08T11:30:14.849Z,1.77
2023-02-08T11:32:46.560Z,2.14
2023-02-08T11:35:23.419Z,1.71
2023-02-08T11:37:54.982Z,1.77
2023-02-08T11:40:26.506Z,1.90
2023-02-08T11:42:53.159Z,1.58
2023-02-08T11:45:24.905Z,1.35
2023-02-08T11:47:52.014Z,1.44
2023-02-08T11:50:32.585Z,1.27
2023-02-08T11:53:01.641Z,1.06
2023-02-08T11:55:30.991Z,1.03
2023-02-08T11:58:09.532Z,1.07
2023-02-08T12:00:38.104Z,1.21
2023-02-08T12:03:15.054Z,1.49
2023-02-08T12:05:50.293Z,1.62
2023-02-08T12:08:35.643Z,1.86
2023-02-08T12:11:11.055Z,1.83
2023-02-08T12:13:53.099Z,1.61
2023-02-08T12:16:36.751Z,1.20
2023-02-08T12:19:12.017Z,2.00
2023-02-08T12:21:46.753Z,1.52
2023-02-08T12:24:22.265Z,1.48
2023-02-08T12:27:27.569Z,1.79
2023-02-08T12:30:24.249Z,1.42
2023-02-08T12:33:06.209Z,1.39
2023-02-08T12:36:03.522Z,1.46
2023-02-08T12:39:18.910Z,1.00
2023-02-08T12:41:52.112Z,1.23
2023-02-08T12:44:37.192Z,2.66
2023-02-08T12:47:22.140Z,4.86
2023-02-08T12:50:08.222Z,6.94
2023-02-08T12:52:41.622Z,10.22
2023-02-08T12:55:30.553Z,12.00
2023-02-08T12:58:22.356Z,14.03
2023-02-08T13:00:50.354Z,15.27
2023-02-08T13:03:36.925Z,15.00
2023-02-08T13:06:06.997Z,15.28
2023-02-08T13:08:41.480Z,15.04
2023-02-08T13:11:20.114Z,16.45
2023-02-08T13:13:56.110Z,17.04
2023-02-08T13:16:25.460Z,17.56
2023-02-08T13:18:55.781Z,18.04
2023-02-08T13:21:30.521Z,16.75
2023-02-08T13:23:57.962Z,19.05
2023-02-08T13:26:28.007Z,19.13
2023-02-08T13:28:56.493Z,18.95
2023-02-08T13:31:25.745Z,19.23
2023-02-08T13:34:08.178Z,19.91
2023-02-08T13:36:35.426Z,19.78
2023-02-08T13:39:08.723Z,19.96
2023-02-08T13:41:36.015Z,19.53
2023-02-08T13:44:19.584Z,20.33
2023-02-08T13:46:48.428Z,20.86
2023-02-08T13:49:39.927Z,21.27
2023-02-08T13:52:08.166Z,21.34
2023-02-08T13:54:34.662Z,20.61
2023-02-08T13:57:01.888Z,21.22
2023-02-08T13:59:34.038Z,21.13
2023-02-08T14:02:14.421Z,22.50
2023-02-08T14:04:45.818Z,22.61
2023-02-08T14:07:22.005Z,22.48
2023-02-08T14:10:08.704Z,22.34
2023-02-08T14:12:40.166Z,22.49
2023-02-08T14:15:17.160Z,22.79
2023-02-08T14:17:48.891Z,22.47
2023-02-08T14:20:40.092Z,22.65
2023-02-08T14:23:27.179Z,22.35
2023-02-08T14:25:55.726Z,23.13
2023-02-08T14:28:28.370Z,22.05
2023-02-08T14:30:57.416Z,22.00
2023-02-08T14:33:31.546Z,22.18
2023-02-08T14:36:00.993Z,20.82
2023-02-08T14:38:38.197Z,19.92
2023-02-08T14:41:04.724Z,18.47
2023-02-08T14:43:42.139Z,18.51
2023-02-08T14:46:40.180Z,18.99
2023-02-08T14:49:15.834Z,19.89
2023-02-08T14:51:47.591Z,19.98
2023-02-08T14:54:23.101Z,19.83
2023-02-08T14:57:01.420Z,19.46
2023-02-08T14:59:31.143Z,19.45
2023-02-08T15:02:00.660Z,20.25
2023-02-08T15:04:27.931Z,21.16
2023-02-08T15:07:04.394Z,21.83
2023-02-08T15:09:32.772Z,22.75
2023-02-08T15:12:04.402Z,23.29
2023-02-08T15:14:34.674Z,23.50
2023-02-08T15:17:01.846Z,23.67
2023-02-08T15:19:31.359Z,23.13
2023-02-08T15:22:17.467Z,23.79
2023-02-08T15:24:52.267Z,24.46
2023-02-08T15:27:24.388Z,24.87
2023-02-08T15:29:51.296Z,25.89
2023-02-08T15:32:20.685Z,24.95
2023-02-08T15:34:52.042Z,25.28
2023-02-08T15:37:19.300Z,25.46
2023-02-08T15:39:50.127Z,24.96
2023-02-08T15:42:19.172Z,24.86
2023-02-08T15:44:46.295Z,24.28
2023-02-08T15:47:25.266Z,24.58
2023-02-08T15:49:53.656Z,24.74
2023-02-08T15:52:23.436Z,25.24
2023-02-08T15:54:51.035Z,24.94
2023-02-08T15:57:22.757Z,25.10
2023-02-08T15:59:49.514Z,25.15
2023-02-08T16:02:31.117Z,25.31
2023-02-08T16:04:59.690Z,25.89
2023-02-08T16:07:37.217Z,26.34
2023-02-08T16:10:05.446Z,26.50
2023-02-08T16:12:32.437Z,27.17
2023-02-08T16:14:59.185Z,27.33
2023-02-08T16:17:44.949Z,27.64
2023-02-08T16:20:40.725Z,28.22
2023-02-08T16:23:26.329Z,28.54
2023-02-08T16:25:52.815Z,28.86
2023-02-08T16:28:31.266Z,29.63
2023-02-08T16:31:03.134Z,29.92
2023-02-08T16:33:31.102Z,30.62
2023-02-08T16:36:06.640Z,30.74
2023-02-08T16:38:34.209Z,31.53
2023-02-08T16:41:13.215Z,32.24
2023-02-08T16:43:44.504Z,31.73
2023-02-08T16:46:12.460Z,31.74
2023-02-08T16:48:42.025Z,31.98
2023-02-08T16:51:21.844Z,32.81
2023-02-08T16:53:52.607Z,33.31
2023-02-08T16:56:19.437Z,33.78
2023-02-08T16:58:45.939Z,33.96
2023-02-08T17:01:14.186Z,33.48
2023-02-08T17:03:41.781Z,34.44
2023-02-08T17:06:19.843Z,35.06
2023-02-08T17:08:46.352Z,35.57
2023-02-08T17:11:12.981Z,35.89
2023-02-08T17:13:39.720Z,36.19
2023-02-08T17:16:06.498Z,36.19
2023-02-08T17:18:34.998Z,36.25
2023-02-08T17:21:02.038Z,36.29
2023-02-08T17:23:28.537Z,36.72
2023-02-08T17:25:55.068Z,37.09
2023-02-08T17:28:22.409Z,37.15
2023-02-08T17:30:49.758Z,37.23
2023-02-08T17:33:19.838Z,37.26
2023-02-08T17:35:48.523Z,38.05
2023-02-08T17:38:15.517Z,37.90
2023-02-08T17:40:43.233Z,38.14
2023-02-08T17:43:11.485Z,38.47
2023-02-08T17:45:39.353Z,38.38
2023-02-08T17:48:06.035Z,38.70
2023-02-08T17:50:32.554Z,39.22
2023-02-08T17:52:59.556Z,39.47
2023-02-08T17:55:26.155Z,39.37
2023-02-08T17:57:53.713Z,39.11
2023-02-08T18:00:22.276Z,38.93
2023-02-08T18:02:51.829Z,39.28
2023-02-08T18:05:21.296Z,39.68
2023-02-08T18:07:47.878Z,39.49
2023-02-08T18:10:16.046Z,39.74
2023-02-08T18:12:43.073Z,40.08
2023-02-08T18:15:12.407Z,39.55
2023-02-08T18:17:39.778Z,39.86
2023-02-08T18:20:06.884Z,39.94
2023-02-08T18:22:33.447Z,40.01
2023-02-08T18:24:59.926Z,39.92
2023-02-08T18:27:27.287Z,40.93
2023-02-08T18:29:54.446Z,41.13
2023-02-08T18:32:22.022Z,40.96
2023-02-08T18:34:49.400Z,41.10
2023-02-08T18:37:16.196Z,42.15
2023-02-08T18:39:42.770Z,42.18
2023-02-08T18:42:09.393Z,42.07
2023-02-08T18:44:38.586Z,42.30
2023-02-08T18:47:06.225Z,42.55
2023-02-08T18:49:34.520Z,42.98
2023-02-08T18:52:01.151Z,42.85
2023-02-08T18:54:27.685Z,42.78
2023-02-08T18:56:55.802Z,42.85
2023-02-08T18:59:22.388Z,41.77
2023-02-08T19:01:48.910Z,42.57
2023-02-08T19:04:15.623Z,42.42
2023-02-08T19:06:42.304Z,40.00
2023-02-08T19:09:08.944Z,39.06
2023-02-08T19:11:37.897Z,41.57
2023-02-08T19:14:10.012Z,40.83
2023-02-08T19:16:37.281Z,41.85
2023-02-08T19:19:05.795Z,41.55
2023-02-08T19:21:33.503Z,39.90
2023-02-08T19:24:00.968Z,39.44
2023-02-08T19:26:33.359Z,40.11
2023-02-08T19:29:03.134Z,40.75
2023-02-08T19:31:30.693Z,38.83
2023-02-08T19:33:58.993Z,38.99
2023-02-08T19:36:31.559Z,38.85
2023-02-08T19:38:58.666Z,37.38
2023-02-08T19:41:29.470Z,39.05
2023-02-08T19:43:55.956Z,38.17
2023-02-08T19:46:26.558Z,38.09
2023-02-08T19:48:55.560Z,38.43
2023-02-08T19:51:22.974Z,38.26
2023-02-08T19:53:49.558Z,38.09
2023-02-08T19:56:17.928Z,38.32
2023-02-08T19:58:45.335Z,37.92
2023-02-08T20:01:18.008Z,38.43
2023-02-08T20:03:45.863Z,38.42
2023-02-08T20:06:25.526Z,38.40
2023-02-08T20:08:52.338Z,38.31
2023-02-08T20:11:25.180Z,38.74
2023-02-08T20:13:52.552Z,38.58
2023-02-08T20:16:20.680Z,39.03
2023-02-08T20:18:47.669Z,38.26
2023-02-08T20:21:14.459Z,38.59
2023-02-08T20:23:41.398Z,38.19
2023-02-08T20:26:14.949Z,38.38
2023-02-08T20:28:46.292Z,38.35
2023-02-08T20:31:16.119Z,38.49
2023-02-08T20:33:43.273Z,38.80
2023-02-08T20:36:15.362Z,38.38
2023-02-08T20:38:42.423Z,38.61
2023-02-08T20:41:13.386Z,38.28
2023-02-08T20:43:42.360Z,38.19
2023-02-08T20:46:12.857Z,38.61
2023-02-08T20:48:39.471Z,38.22
2023-02-08T20:51:10.024Z,38.08
2023-02-08T20:53:37.655Z,38.17
2023-02-08T20:56:09.338Z,38.40
2023-02-08T20:58:36.343Z,38.43
2023-02-08T21:01:07.328Z,38.05
2023-02-08T21:03:33.877Z,38.58
2023-02-08T21:06:00.635Z,39.01
2023-02-08T21:08:27.131Z,39.57
2023-02-08T21:10:54.381Z,39.57
2023-02-08T21:13:20.862Z,39.79
2023-02-08T21:15:47.342Z,39.93
2023-02-08T21:18:13.789Z,39.74
2023-02-08T21:20:40.633Z,40.97
2023-02-08T21:23:07.709Z,41.16
2023-02-08T21:25:34.258Z,41.39
2023-02-08T21:28:00.921Z,41.58
2023-02-08T21:30:27.545Z,43.91
2023-02-08T21:32:54.141Z,43.35
2023-02-08T21:35:20.577Z,43.42
2023-02-08T21:37:47.108Z,43.18
2023-02-08T21:40:13.631Z,43.51
2023-02-08T21:42:40.064Z,42.72
2023-02-08T21:45:08.556Z,43.82
2023-02-08T21:47:35.486Z,43.88
2023-02-08T21:50:20.726Z,43.29
2023-02-08T21:53:06.121Z,43.19
2023-02-08T21:55:32.768Z,42.63
2023-02-08T21:57:59.247Z,41.65
2023-02-08T22:00:25.774Z,41.16
2023-02-08T22:02:52.353Z,41.75
2023-02-08T22:05:21.794Z,42.17
2023-02-08T22:07:55.927Z,42.69
2023-02-08T22:10:27.132Z,41.61
2023-02-08T22:12:55.127Z,41.69
2023-02-08T22:15:24.445Z,42.70
2023-02-08T22:17:55.657Z,42.76
2023-02-08T22:20:22.687Z,42.32
2023-02-08T22:22:52.629Z,41.93
2023-02-08T22:25:21.041Z,41.28
2023-02-08T22:27:47.907Z,41.64
2023-02-08T22:30:16.275Z,41.45
2023-02-08T22:32:44.329Z,41.48
2023-02-08T22:35:12.357Z,41.77
2023-02-08T22:37:39.208Z,42.21
2023-02-08T22:40:06.856Z,42.12
2023-02-08T22:42:33.570Z,42.52
2023-02-08T22:45:00.199Z,42.88
2023-02-08T22:47:26.666Z,43.05
2023-02-08T22:49:56.614Z,43.13
2023-02-08T22:52:24.223Z,43.21
2023-02-08T22:54:51.067Z,44.63
2023-02-08T22:57:18.154Z,44.80
2023-02-08T22:59:44.634Z,45.08
2023-02-08T23:02:11.103Z,45.12
2023-02-08T23:04:38.087Z,46.15
2023-02-08T23:07:04.949Z,45.38
2023-02-08T23:09:31.405Z,46.34
2023-02-08T23:11:58.079Z,47.07
2023-02-08T23:14:24.578Z,47.95
2023-02-08T23:16:50.992Z,47.67
2023-02-08T23:19:18.601Z,46.77
2023-02-08T23:21:45.307Z,46.39
2023-02-08T23:24:11.869Z,46.43
2023-02-08T23:26:39.119Z,45.46
2023-02-08T23:29:05.908Z,46.15
2023-02-08T23:31:32.514Z,46.80
2023-02-08T23:34:00.368Z,46.93
2023-02-08T23:36:27.101Z,46.19
2023-02-08T23:38:53.716Z,45.92
2023-02-08T23:41:21.773Z,45.67
2023-02-08T23:43:49.837Z,45.85
2023-02-08T23:46:23.104Z,46.00
2023-02-08T23:48:50.503Z,45.27
2023-02-08T23:51:19.090Z,45.08
2023-02-08T23:53:45.738Z,45.26
2023-02-08T23:56:24.356Z,45.52
2023-02-08T23:58:53.906Z,46.79
